Time;durP1;ratioP1;P1;durP2;ratioP2;P2;SDS_P1;SDS_P2;PMS_P1;PMS_P2;Temp;Humidity;BMP_temperature;BMP_pressure;BME280_temperature;BME280_humidity;BME280_pressure;Samples;Min_cycle;Max_cycle;Signal;HPM_P1;HPM_P2
2023/07/30 00:01:15;;;;;;;0.00;0.00;;;;;;;15.85;nan;99744.44;6191844;23;20004;-73
2023/07/30 00:03:41;;;;;;;0.00;0.00;;;;;;;15.92;nan;99752.28;6242649;23;20087;-74
2023/07/30 00:06:06;;;;;;;0.00;0.00;;;;;;;15.90;nan;99753.72;6242930;23;20082;-73
2023/07/30 00:08:32;;;;;;;0.00;0.00;;;;;;;15.84;nan;99748.34;6244966;23;20087;-73
2023/07/30 00:10:57;;;;;;;0.00;0.00;;;;;;;15.86;nan;99751.59;6244208;23;20028;-73
2023/07/30 00:13:23;;;;;;;0.00;0.00;;;;;;;15.83;nan;99749.47;6245447;23;20081;-73
2023/07/30 00:15:49;;;;;;;0.00;0.00;;;;;;;15.78;nan;99749.59;6218743;23;20008;-74
2023/07/30 00:18:15;;;;;;;0.00;0.00;;;;;;;15.74;nan;99748.59;6261044;22;20027;-73
2023/07/30 00:20:40;;;;;;;0.00;0.00;;;;;;;15.74;nan;99737.59;6222593;22;20061;-72
2023/07/30 00:23:06;;;;;;;0.00;0.00;;;;;;;15.74;nan;99737.59;6247991;22;20061;-73
2023/07/30 00:25:31;;;;;;;0.00;0.00;;;;;;;15.70;nan;99742.91;6196250;22;20399;-73
2023/07/30 00:27:57;;;;;;;0.00;0.00;;;;;;;15.57;nan;99737.50;6248073;22;20090;-73
2023/07/30 00:30:22;;;;;;;0.00;0.00;;;;;;;15.42;nan;99736.75;6222335;22;20000;-72
2023/07/30 00:32:50;;;;;;;0.00;0.00;;;;;;;15.25;nan;99736.66;6197535;22;20484;-73
2023/07/30 00:35:16;;;;;;;0.00;0.00;;;;;;;15.18;nan;99751.66;6247965;22;20007;-74
2023/07/30 00:37:41;;;;;;;0.00;0.00;;;;;;;15.07;nan;99744.81;6274744;22;19995;-72
2023/07/30 00:40:07;;;;;;;0.00;0.00;;;;;;;15.06;nan;99740.41;6247873;22;20011;-73
2023/07/30 00:42:33;;;;;;;0.00;0.00;;;;;;;15.02;nan;99736.66;6246918;22;20008;-74
2023/07/30 00:44:58;;;;;;;0.00;0.00;;;;;;;14.95;nan;99750.88;6274884;22;20072;-73
2023/07/30 00:47:23;;;;;;;0.00;0.00;;;;;;;14.92;nan;99745.16;6247702;22;20054;-73
2023/07/30 00:49:50;;;;;;;0.00;0.00;;;;;;;14.93;nan;99746.78;6274403;22;20057;-73
2023/07/30 00:52:21;;;;;;;0.00;0.00;;;;;;;14.95;nan;99745.38;6247957;22;20038;-73
2023/07/30 00:54:48;;;;;;;0.00;0.00;;;;;;;15.01;nan;99751.56;6274027;22;20003;-73
2023/07/30 00:57:15;;;;;;;0.00;0.00;;;;;;;15.00;nan;99752.69;6274635;22;20003;-73
2023/07/30 00:59:41;;;;;;;0.00;0.00;;;;;;;15.06;nan;99751.44;6275178;22;20024;-73
2023/07/30 01:02:07;;;;;;;0.00;0.00;;;;;;;15.16;nan;99756.69;6247661;22;20011;-73
2023/07/30 01:04:32;;;;;;;0.00;0.00;;;;;;;15.16;nan;99755.88;6222386;22;20444;-72
2023/07/30 01:06:58;;;;;;;0.00;0.00;;;;;;;15.13;nan;99762.00;6248509;22;20007;-71
2023/07/30 01:09:24;;;;;;;0.00;0.00;;;;;;;15.09;nan;99761.00;6247943;22;20026;-73
2023/07/30 01:11:53;;;;;;;0.00;0.00;;;;;;;15.06;nan;99767.13;6247573;22;20042;-72
2023/07/30 01:14:20;;;;;;;0.00;0.00;;;;;;;14.97;nan;99767.88;6247043;22;20094;-72
2023/07/30 01:16:45;;;;;;;0.00;0.00;;;;;;;14.91;nan;99765.53;6248260;22;20066;-73
2023/07/30 01:19:13;;;;;;;0.00;0.00;;;;;;;14.95;nan;99775.66;6196723;22;20023;-73
2023/07/30 01:21:38;;;;;;;0.00;0.00;;;;;;;14.97;nan;99769.81;6222650;22;20007;-74
2023/07/30 01:24:04;;;;;;;0.00;0.00;;;;;;;15.05;nan;99779.28;6222676;22;20056;-74
2023/07/30 01:26:41;;;;;;;0.00;0.00;;;;;;;15.12;nan;99788.72;6221197;22;20449;-74
2023/07/30 01:29:14;;;;;;;0.00;0.00;;;;;;;15.10;nan;99793.75;6247936;22;20079;-73
2023/07/30 01:31:41;;;;;;;0.00;0.00;;;;;;;14.72;nan;99782.22;6274122;22;20004;-73
2023/07/30 01:34:10;;;;;;;0.00;0.00;;;;;;;14.35;nan;99776.63;6246121;22;20011;-75
2023/07/30 01:36:37;;;;;;;0.00;0.00;;;;;;;14.18;nan;99787.44;6274064;22;20075;-73
2023/07/30 01:39:03;;;;;;;0.00;0.00;;;;;;;14.09;nan;99782.69;6244037;22;20112;-74
2023/07/30 01:41:28;;;;;;;0.00;0.00;;;;;;;14.07;nan;99782.16;6222513;22;20622;-73
2023/07/30 01:43:54;;;;;;;0.00;0.00;;;;;;;14.09;nan;99770.84;6246924;22;20035;-72
2023/07/30 01:46:19;;;;;;;0.00;0.00;;;;;;;14.19;nan;99772.59;6245012;22;20077;-74
2023/07/30 01:48:45;;;;;;;0.00;0.00;;;;;;;14.26;nan;99764.75;6273446;22;20046;-74
2023/07/30 01:51:10;;;;;;;0.00;0.00;;;;;;;14.30;nan;99772.06;6274541;22;20003;-73
2023/07/30 01:53:35;;;;;;;0.00;0.00;;;;;;;14.30;nan;99779.50;6244191;22;20027;-73
2023/07/30 01:56:01;;;;;;;0.00;0.00;;;;;;;14.31;nan;99792.16;6247934;22;20033;-72
2023/07/30 01:58:26;;;;;;;0.00;0.00;;;;;;;14.32;nan;99788.25;6221216;22;20012;-73
2023/07/30 02:00:52;;;;;;;0.00;0.00;;;;;;;14.29;nan;99786.13;6244655;22;20066;-74
2023/07/30 02:03:17;;;;;;;0.00;0.00;;;;;;;14.29;nan;99805.38;6245844;22;20014;-74
2023/07/30 02:05:43;;;;;;;0.00;0.00;;;;;;;14.24;nan;99797.25;6248105;22;20076;-73
2023/07/30 02:08:08;;;;;;;0.00;0.00;;;;;;;14.27;nan;99796.63;6274577;22;20368;-74
2023/07/30 02:10:33;;;;;;;0.00;0.00;;;;;;;14.29;nan;99797.13;6247203;22;20479;-73
2023/07/30 02:12:59;;;;;;;0.00;0.00;;;;;;;14.29;nan;99803.47;6247363;22;20003;-73
2023/07/30 02:15:24;;;;;;;0.00;0.00;;;;;;;14.29;nan;99810.88;6245694;22;20087;-73
2023/07/30 02:17:50;;;;;;;0.00;0.00;;;;;;;14.27;nan;99802.94;6241513;23;20447;-73
2023/07/30 02:20:15;;;;;;;0.00;0.00;;;;;;;14.23;nan;99801.09;6240424;23;20008;-73
2023/07/30 02:22:41;;;;;;;0.00;0.00;;;;;;;14.22;nan;99805.81;6190927;23;20377;-73
2023/07/30 02:25:06;;;;;;;0.00;0.00;;;;;;;14.23;nan;99806.59;6215656;23;20004;-72
2023/07/30 02:27:32;;;;;;;0.00;0.00;;;;;;;14.24;nan;99805.50;6241645;23;20012;-74
2023/07/30 02:29:57;;;;;;;0.00;0.00;;;;;;;14.37;nan;99812.91;6189254;23;20635;-74
2023/07/30 02:32:23;;;;;;;0.00;0.00;;;;;;;14.38;nan;99808.22;6215834;23;20095;-73
2023/07/30 02:34:48;;;;;;;0.00;0.00;;;;;;;14.41;nan;99811.19;6215538;23;20046;-72
2023/07/30 02:37:14;;;;;;;0.00;0.00;;;;;;;14.43;nan;99817.19;6191513;23;20039;-73
2023/07/30 02:39:39;;;;;;;0.00;0.00;;;;;;;14.47;nan;99812.72;6215853;23;20004;-74
2023/07/30 02:42:05;;;;;;;0.00;0.00;;;;;;;14.46;nan;99805.56;6243010;23;20004;-74
2023/07/30 02:44:30;;;;;;;0.00;0.00;;;;;;;14.47;nan;99796.19;6241480;23;20008;-74
2023/07/30 02:46:56;;;;;;;0.00;0.00;;;;;;;14.42;nan;99790.78;6241857;23;20005;-73
2023/07/30 02:49:21;;;;;;;0.00;0.00;;;;;;;14.42;nan;99801.78;6214223;23;20327;-73
2023/07/30 02:51:48;;;;;;;0.00;0.00;;;;;;;14.46;nan;99789.06;6192108;23;20004;-73
2023/07/30 02:54:15;;;;;;;0.00;0.00;;;;;;;14.48;nan;99797.00;6241598;23;20004;-73
2023/07/30 02:56:41;;;;;;;0.00;0.00;;;;;;;14.47;nan;99789.88;6243174;22;20487;-73
2023/07/30 02:59:06;;;;;;;0.00;0.00;;;;;;;14.49;nan;99793.13;6242315;23;20047;-73
2023/07/30 03:01:32;;;;;;;0.00;0.00;;;;;;;14.52;nan;99794.47;6216383;23;20016;-74
2023/07/30 03:03:57;;;;;;;0.00;0.00;;;;;;;14.49;nan;99798.66;6243310;23;20046;-72
2023/07/30 03:06:23;;;;;;;0.00;0.00;;;;;;;14.41;nan;99810.34;6216821;23;20008;-73
2023/07/30 03:08:48;;;;;;;0.00;0.00;;;;;;;14.27;nan;99796.63;6242696;22;20004;-74
2023/07/30 03:11:14;;;;;;;0.00;0.00;;;;;;;14.19;nan;99806.38;6216418;23;20032;-74
2023/07/30 03:13:39;;;;;;;0.00;0.00;;;;;;;14.12;nan;99812.31;6241354;23;20083;-75
2023/07/30 03:16:04;;;;;;;0.00;0.00;;;;;;;13.99;nan;99801.28;6241457;23;20004;-74
2023/07/30 03:18:30;;;;;;;0.00;0.00;;;;;;;13.95;nan;99809.34;6241413;22;20075;-75
2023/07/30 03:21:03;;;;;;;0.00;0.00;;;;;;;13.83;nan;99809.84;6240607;23;20077;-74
2023/07/30 03:23:29;;;;;;;0.00;0.00;;;;;;;13.78;nan;99816.25;6216598;23;20519;-74
2023/07/30 03:25:54;;;;;;;0.00;0.00;;;;;;;13.70;nan;99800.44;6244793;22;20026;-75
2023/07/30 03:28:19;;;;;;;0.00;0.00;;;;;;;13.67;nan;99809.28;6192589;23;20489;-74
2023/07/30 03:30:45;;;;;;;0.00;0.00;;;;;;;13.60;nan;99808.88;6192642;23;20056;-73
2023/07/30 03:33:10;;;;;;;0.00;0.00;;;;;;;13.55;nan;99814.44;6217070;23;20095;-73
2023/07/30 03:35:36;;;;;;;0.00;0.00;;;;;;;13.47;nan;99809.66;6243960;22;20486;-74
2023/07/30 03:38:01;;;;;;;0.00;0.00;;;;;;;13.43;nan;99814.91;6191170;23;20062;-73
2023/07/30 03:40:27;;;;;;;0.00;0.00;;;;;;;13.37;nan;99816.91;6215772;23;20004;-73
2023/07/30 03:42:53;;;;;;;0.00;0.00;;;;;;;13.35;nan;99821.91;6242946;23;20015;-74
2023/07/30 03:45:19;;;;;;;0.00;0.00;;;;;;;13.26;nan;99820.94;6242975;23;20490;-73
2023/07/30 03:47:44;;;;;;;0.00;0.00;;;;;;;13.23;nan;99814.09;6217038;23;20008;-72
2023/07/30 03:50:09;;;;;;;0.00;0.00;;;;;;;13.21;nan;99821.81;6218168;23;20426;-74
2023/07/30 03:52:35;;;;;;;0.00;0.00;;;;;;;13.19;nan;99823.22;6215830;23;20012;-75
2023/07/30 03:55:00;;;;;;;0.00;0.00;;;;;;;13.22;nan;99822.63;6244281;22;20008;-74
2023/07/30 03:57:25;;;;;;;0.00;0.00;;;;;;;13.22;nan;99828.13;6242879;23;20004;-74
2023/07/30 03:59:51;;;;;;;0.00;0.00;;;;;;;13.21;nan;99824.53;6216421;23;20004;-73
2023/07/30 04:02:16;;;;;;;0.00;0.00;;;;;;;13.18;nan;99843.56;6243032;23;20058;-74
2023/07/30 04:04:48;;;;;;;0.00;0.00;;;;;;;13.19;nan;99836.97;6242077;23;20327;-74
2023/07/30 04:07:13;;;;;;;0.00;0.00;;;;;;;13.33;nan;99845.25;6244843;22;20004;-74
2023/07/30 04:09:39;;;;;;;0.00;0.00;;;;;;;13.36;nan;99840.03;6217050;23;20335;-75
2023/07/30 04:12:05;;;;;;;0.00;0.00;;;;;;;13.39;nan;99844.91;6217889;23;20008;-74
2023/07/30 04:14:30;;;;;;;0.00;0.00;;;;;;;13.49;nan;99865.91;6241766;23;20323;-75
2023/07/30 04:16:55;;;;;;;0.00;0.00;;;;;;;13.52;nan;99850.75;6243349;23;20062;-74
2023/07/30 04:19:21;;;;;;;0.00;0.00;;;;;;;13.53;nan;99849.63;6241458;22;20723;-74
2023/07/30 04:21:46;;;;;;;0.00;0.00;;;;;;;13.53;nan;99849.63;6242969;23;20015;-74
2023/07/30 04:24:12;;;;;;;0.00;0.00;;;;;;;13.47;nan;99846.16;6216121;23;20008;-73
2023/07/30 04:26:37;;;;;;;0.00;0.00;;;;;;;13.47;nan;99856.34;6243198;23;20008;-74
2023/07/30 04:29:02;;;;;;;0.00;0.00;;;;;;;13.43;nan;99850.59;6241591;23;20350;-78
2023/07/30 04:31:28;;;;;;;0.00;0.00;;;;;;;13.48;nan;99853.28;6192927;23;20052;-74
2023/07/30 04:33:53;;;;;;;0.00;0.00;;;;;;;13.44;nan;99853.06;6241934;23;20020;-74
2023/07/30 04:36:19;;;;;;;0.00;0.00;;;;;;;13.41;nan;99853.66;6191435;23;20058;-75
2023/07/30 04:38:44;;;;;;;0.00;0.00;;;;;;;13.51;nan;99857.38;6217209;23;20335;-75
2023/07/30 04:41:09;;;;;;;0.00;0.00;;;;;;;13.56;nan;99865.50;6191857;23;20008;-75
2023/07/30 04:43:37;;;;;;;0.00;0.00;;;;;;;13.61;nan;99862.69;6192239;23;20004;-73
2023/07/30 04:46:02;;;;;;;0.00;0.00;;;;;;;13.68;nan;99865.88;6243287;23;20335;-73
2023/07/30 04:48:28;;;;;;;0.00;0.00;;;;;;;13.79;nan;99861.81;6243038;23;20004;-74
2023/07/30 04:50:53;;;;;;;0.00;0.00;;;;;;;13.96;nan;99869.50;6217225;23;20004;-73
2023/07/30 04:53:20;;;;;;;0.00;0.00;;;;;;;14.08;nan;99871.75;6242999;22;20060;-73
2023/07/30 04:55:46;;;;;;;0.00;0.00;;;;;;;14.18;nan;99868.03;6243701;23;20060;-74
2023/07/30 04:58:11;;;;;;;0.00;0.00;;;;;;;14.30;nan;99873.81;6216890;23;20708;-73
2023/07/30 05:00:37;;;;;;;0.00;0.00;;;;;;;14.41;nan;99868.13;6244333;22;20008;-73
2023/07/30 05:03:02;;;;;;;0.00;0.00;;;;;;;14.47;nan;99875.97;6242082;23;20331;-75
2023/07/30 05:05:28;;;;;;;0.00;0.00;;;;;;;14.52;nan;99877.00;6217171;23;20004;-73
2023/07/30 05:07:53;;;;;;;0.00;0.00;;;;;;;14.56;nan;99876.09;6216963;23;20008;-75
2023/07/30 05:10:18;;;;;;;0.00;0.00;;;;;;;14.53;nan;99875.84;6242465;23;20011;-73
2023/07/30 05:12:44;;;;;;;0.00;0.00;;;;;;;14.53;nan;99887.69;6242541;23;20010;-73
2023/07/30 05:15:09;;;;;;;0.00;0.00;;;;;;;14.57;nan;99882.38;6216829;23;20024;-73
2023/07/30 05:17:35;;;;;;;0.00;0.00;;;;;;;14.59;nan;99885.66;6241894;22;20020;-72
2023/07/30 05:20:00;;;;;;;0.00;0.00;;;;;;;14.62;nan;99890.59;6244920;23;20031;-73
2023/07/30 05:22:26;;;;;;;0.00;0.00;;;;;;;14.65;nan;99889.97;6191317;23;20015;-73
2023/07/30 05:24:51;;;;;;;0.00;0.00;;;;;;;14.63;nan;99897.69;6243443;22;20676;-73
2023/07/30 05:27:16;;;;;;;0.00;0.00;;;;;;;14.56;nan;99897.25;6242758;22;20046;-73
2023/07/30 05:29:42;;;;;;;0.00;0.00;;;;;;;14.46;nan;99892.78;6217185;23;20285;-72
2023/07/30 05:32:09;;;;;;;0.00;0.00;;;;;;;14.39;nan;99893.19;6191510;23;20379;-73
2023/07/30 05:34:34;;;;;;;0.00;0.00;;;;;;;14.41;nan;99896.47;6242314;22;20004;-72
2023/07/30 05:37:00;;;;;;;0.00;0.00;;;;;;;14.49;nan;99892.97;6242208;23;20032;-72
2023/07/30 05:39:26;;;;;;;0.00;0.00;;;;;;;14.63;nan;99886.69;6244218;23;20058;-72
2023/07/30 05:41:51;;;;;;;0.00;0.00;;;;;;;14.77;nan;99883.94;6241581;23;20071;-73
2023/07/30 05:44:17;;;;;;;0.00;0.00;;;;;;;14.88;nan;99890.03;6192187;23;20419;-72
2023/07/30 05:46:42;;;;;;;0.00;0.00;;;;;;;14.76;nan;99885.88;6242836;23;20008;-72
2023/07/30 05:49:08;;;;;;;0.00;0.00;;;;;;;14.61;nan;99888.91;6215898;23;20012;-75
2023/07/30 05:51:33;;;;;;;0.00;0.00;;;;;;;14.53;nan;99895.94;6242302;23;20015;-73
2023/07/30 05:53:59;;;;;;;0.00;0.00;;;;;;;14.49;nan;99881.97;6240782;23;20008;-73
2023/07/30 05:56:24;;;;;;;0.00;0.00;;;;;;;14.51;nan;99891.88;6216890;23;20330;-73
2023/07/30 05:58:49;;;;;;;0.00;0.00;;;;;;;14.53;nan;99887.69;6192733;23;20008;-72
2023/07/30 06:01:15;;;;;;;0.00;0.00;;;;;;;14.55;nan;99890.16;6241953;23;20083;-73
2023/07/30 06:03:42;;;;;;;0.00;0.00;;;;;;;14.55;nan;99879.94;6192042;23;20008;-71
2023/07/30 06:06:08;;;;;;;0.00;0.00;;;;;;;14.54;nan;99866.50;6215482;23;20001;-72
2023/07/30 06:08:33;;;;;;;0.00;0.00;;;;;;;14.61;nan;99864.16;6243952;22;20015;-74
2023/07/30 06:11:02;;;;;;;0.00;0.00;;;;;;;14.59;nan;99858.16;6218099;23;20310;-73
2023/07/30 06:13:28;;;;;;;0.00;0.00;;;;;;;14.72;nan;99864.78;6244141;22;20035;-72
2023/07/30 06:15:54;;;;;;;0.00;0.00;;;;;;;14.79;nan;99868.75;6241886;23;20004;-73
2023/07/30 06:18:19;;;;;;;0.00;0.00;;;;;;;14.88;nan;99868.84;6259351;22;20050;-72
2023/07/30 06:20:45;;;;;;;0.00;0.00;;;;;;;14.92;nan;99883.63;6220174;22;20016;-73
2023/07/30 06:23:10;;;;;;;0.00;0.00;;;;;;;14.96;nan;99883.81;6221948;22;20122;-74
2023/07/30 06:25:35;;;;;;;0.00;0.00;;;;;;;14.95;nan;99882.19;6220165;22;20553;-73
2023/07/30 06:28:01;;;;;;;0.00;0.00;;;;;;;14.96;nan;99883.81;6222284;22;20014;-73
2023/07/30 06:30:26;;;;;;;0.00;0.00;;;;;;;14.94;nan;99881.38;6220240;22;20014;-73
2023/07/30 06:32:54;;;;;;;0.00;0.00;;;;;;;14.97;nan;99890.97;6221763;22;19999;-72
2023/07/30 06:35:20;;;;;;;0.00;0.00;;;;;;;14.96;nan;99890.13;6221100;22;20422;-72
2023/07/30 06:37:45;;;;;;;0.00;0.00;;;;;;;14.97;nan;99888.22;6247609;22;20045;-72
2023/07/30 06:40:10;;;;;;;0.00;0.00;;;;;;;15.00;nan;99890.34;6272770;22;20007;-73
2023/07/30 06:42:36;;;;;;;0.00;0.00;;;;;;;15.03;nan;99886.97;6247116;22;20011;-72
2023/07/30 06:45:02;;;;;;;0.00;0.00;;;;;;;15.13;nan;99895.00;6247258;22;20004;-73
2023/07/30 06:47:46;;;;;;;0.00;0.00;;;;;;;15.17;nan;99892.44;6246422;22;20059;-73
2023/07/30 06:50:14;;;;;;;0.00;0.00;;;;;;;15.19;nan;99893.75;6250680;22;20034;-73
2023/07/30 06:52:40;;;;;;;0.00;0.00;;;;;;;15.31;nan;99900.66;6247153;22;20003;-73
2023/07/30 06:55:05;;;;;;;0.00;0.00;;;;;;;15.51;nan;99894.69;6196180;22;20053;-72
2023/07/30 06:57:31;;;;;;;0.00;0.00;;;;;;;15.83;nan;99897.53;6245991;22;20008;-72
2023/07/30 06:59:57;;;;;;;0.00;0.00;;;;;;;15.96;nan;99893.91;6246786;22;20320;-73
2023/07/30 07:02:23;;;;;;;0.00;0.00;;;;;;;16.08;nan;99907.09;6224366;22;20098;-72
2023/07/30 07:04:49;;;;;;;0.00;0.00;;;;;;;16.20;nan;99910.06;6248210;22;20039;-73
2023/07/30 07:07:15;;;;;;;0.00;0.00;;;;;;;16.28;nan;99905.75;6276120;22;20004;-73
2023/07/30 07:09:40;;;;;;;0.00;0.00;;;;;;;16.39;nan;99914.56;6277252;22;20007;-73
2023/07/30 07:12:06;;;;;;;0.00;0.00;;;;;;;16.58;nan;99914.31;6224056;22;20012;-74
2023/07/30 07:14:34;;;;;;;0.00;0.00;;;;;;;16.98;nan;99924.53;6223844;22;20095;-73
2023/07/30 07:17:00;;;;;;;0.00;0.00;;;;;;;17.39;nan;99906.72;6275623;22;20073;-73
2023/07/30 07:19:28;;;;;;;0.00;0.00;;;;;;;17.51;nan;99912.41;6222944;22;20454;-73
2023/07/30 07:21:53;;;;;;;0.00;0.00;;;;;;;17.32;nan;99909.97;6248767;22;20546;-73
2023/07/30 07:24:19;;;;;;;0.00;0.00;;;;;;;17.16;nan;99901.34;6249544;22;20008;-75
2023/07/30 07:26:44;;;;;;;0.00;0.00;;;;;;;17.09;nan;99912.06;6247665;22;20031;-73
2023/07/30 07:29:10;;;;;;;0.00;0.00;;;;;;;17.11;nan;99965.00;6249410;22;20022;-72
2023/07/30 07:31:35;;;;;;;0.00;0.00;;;;;;;17.26;nan;99928.66;6248228;22;20007;-74
2023/07/30 07:34:01;;;;;;;0.00;0.00;;;;;;;17.66;nan;99929.66;6222405;22;20030;-74
2023/07/30 07:36:26;;;;;;;0.00;0.00;;;;;;;17.99;nan;99931.91;6246355;22;20320;-73
2023/07/30 07:38:52;;;;;;;0.00;0.00;;;;;;;18.09;nan;99931.56;6222827;22;20039;-73
2023/07/30 07:41:17;;;;;;;0.00;0.00;;;;;;;18.19;nan;99930.41;6248954;22;20086;-74
2023/07/30 07:43:46;;;;;;;0.00;0.00;;;;;;;18.36;nan;99935.09;6221777;22;20011;-74
2023/07/30 07:46:15;;;;;;;0.00;0.00;;;;;;;18.20;nan;99932.84;6274374;22;20053;-73
2023/07/30 07:48:41;;;;;;;0.00;0.00;;;;;;;18.03;nan;99947.53;6248874;22;20085;-74
2023/07/30 07:51:07;;;;;;;0.00;0.00;;;;;;;18.16;nan;99942.94;6248587;22;20014;-73
2023/07/30 07:53:35;;;;;;;0.00;0.00;;;;;;;18.33;nan;99946.84;6275457;22;20031;-72
2023/07/30 07:56:00;;;;;;;0.00;0.00;;;;;;;18.59;nan;99955.06;6275899;22;20426;-73
2023/07/30 07:58:26;;;;;;;0.00;0.00;;;;;;;18.71;nan;99943.28;6248551;22;20011;-74
2023/07/30 08:00:57;;;;;;;0.00;0.00;;;;;;;18.55;nan;99943.81;6222475;22;20004;-73
2023/07/30 08:03:23;;;;;;;0.00;0.00;;;;;;;18.42;nan;99961.44;6248586;22;20003;-74
2023/07/30 08:05:48;;;;;;;0.00;0.00;;;;;;;18.26;nan;99948.13;6248379;22;20315;-74
2023/07/30 08:08:14;;;;;;;0.00;0.00;;;;;;;18.33;nan;99936.56;6274603;22;20008;-74
2023/07/30 08:10:49;;;;;;;0.00;0.00;;;;;;;18.58;nan;99943.16;6223594;22;20431;-74
2023/07/30 08:13:17;;;;;;;0.00;0.00;;;;;;;18.73;nan;99938.19;6275998;22;20011;-75
2023/07/30 08:15:42;;;;;;;0.00;0.00;;;;;;;18.72;nan;99954.03;6247244;22;20008;-73
2023/07/30 08:18:08;;;;;;;0.00;0.00;;;;;;;18.53;nan;99934.22;6222537;22;20019;-75
2023/07/30 08:20:33;;;;;;;0.00;0.00;;;;;;;18.55;nan;99948.56;6221628;22;20008;-74
2023/07/30 08:22:59;;;;;;;0.00;0.00;;;;;;;18.49;nan;99956.22;6197809;22;20027;-74
2023/07/30 08:25:24;;;;;;;0.00;0.00;;;;;;;18.61;nan;99964.63;6247335;22;20334;-74
2023/07/30 08:27:50;;;;;;;0.00;0.00;;;;;;;18.72;nan;99958.72;6247748;22;20066;-74
2023/07/30 08:30:15;;;;;;;0.00;0.00;;;;;;;18.72;nan;99947.66;6247522;22;20030;-74
2023/07/30 08:32:43;;;;;;;0.00;0.00;;;;;;;18.82;nan;99963.91;6247861;22;20011;-74
2023/07/30 08:35:08;;;;;;;0.00;0.00;;;;;;;19.15;nan;99964.06;6274708;22;20500;-73
2023/07/30 08:37:34;;;;;;;0.00;0.00;;;;;;;19.30;nan;99957.16;6248289;22;20003;-74
2023/07/30 08:39:59;;;;;;;0.00;0.00;;;;;;;19.31;nan;99952.41;6222364;22;20004;-73
2023/07/30 08:42:27;;;;;;;0.00;0.00;;;;;;;19.43;nan;99960.00;6197758;22;20025;-74
2023/07/30 08:44:52;;;;;;;0.00;0.00;;;;;;;19.49;nan;99950.31;6224419;22;20041;-74
2023/07/30 08:47:20;;;;;;;0.00;0.00;;;;;;;19.35;nan;99948.63;6223260;22;20008;-74
2023/07/30 08:49:45;;;;;;;0.00;0.00;;;;;;;19.17;nan;99952.66;6223496;22;20007;-72
2023/07/30 08:52:11;;;;;;;0.00;0.00;;;;;;;18.94;nan;99932.75;6247313;22;20040;-73
2023/07/30 08:54:38;;;;;;;0.00;0.00;;;;;;;19.07;nan;99936.41;6247519;22;20007;-72
2023/07/30 08:57:05;;;;;;;0.00;0.00;;;;;;;19.18;nan;99944.00;6223367;22;20010;-73
2023/07/30 08:59:39;;;;;;;0.00;0.00;;;;;;;19.47;nan;99950.66;6274414;22;20031;-72
2023/07/30 09:02:13;;;;;;;0.00;0.00;;;;;;;19.30;nan;99945.25;6276261;22;20027;-73
2023/07/30 09:04:44;;;;;;;0.00;0.00;;;;;;;19.14;nan;99939.47;6273259;22;20390;-72
2023/07/30 09:07:11;;;;;;;0.00;0.00;;;;;;;19.04;nan;99953.72;6248482;22;20027;-73
2023/07/30 09:09:37;;;;;;;0.00;0.00;;;;;;;18.78;nan;99954.66;6274868;22;20466;-72
2023/07/30 09:12:03;;;;;;;0.00;0.00;;;;;;;18.51;nan;99959.47;6274981;22;20003;-72
2023/07/30 09:14:28;;;;;;;0.00;0.00;;;;;;;18.05;nan;99952.75;6247225;22;20394;-72
2023/07/30 09:17:00;;;;;;;0.00;0.00;;;;;;;17.78;nan;99960.22;6274889;22;20098;-72
2023/07/30 09:19:26;;;;;;;0.00;0.00;;;;;;;17.59;nan;99953.03;6240307;22;20012;-74
2023/07/30 09:21:51;;;;;;;0.00;0.00;;;;;;;17.61;nan;99953.56;6243732;22;20023;-72
2023/07/30 09:24:23;;;;;;;0.00;0.00;;;;;;;17.65;nan;99950.94;6242258;23;20012;-75
2023/07/30 09:26:48;;;;;;;0.00;0.00;;;;;;;17.79;nan;99953.56;6241690;23;20412;-73
2023/07/30 09:29:14;;;;;;;0.00;0.00;;;;;;;17.86;nan;99948.34;6243901;22;20138;-74
2023/07/30 09:31:56;;;;;;;0.00;0.00;;;;;;;17.77;nan;99953.03;6217417;23;20014;-74
2023/07/30 09:34:24;;;;;;;0.00;0.00;;;;;;;17.74;nan;99956.47;6244348;22;20312;-72
2023/07/30 09:36:54;;;;;;;0.00;0.00;;;;;;;17.54;nan;99955.19;6243648;22;20000;-74
2023/07/30 09:39:24;;;;;;;0.00;0.00;;;;;;;17.36;nan;99943.28;6244706;22;20419;-73
2023/07/30 09:42:00;;;;;;;0.00;0.00;;;;;;;17.39;nan;99937.09;6242992;23;20442;-73
2023/07/30 09:44:25;;;;;;;0.00;0.00;;;;;;;17.48;nan;99939.88;6244757;22;20497;-72
2023/07/30 09:46:51;;;;;;;0.00;0.00;;;;;;;17.62;nan;99935.84;6217410;23;20004;-71
2023/07/30 09:49:17;;;;;;;0.00;0.00;;;;;;;17.63;nan;99940.22;6242433;23;20343;-73
2023/07/30 09:51:42;;;;;;;0.00;0.00;;;;;;;17.55;nan;99937.44;6243973;23;20020;-75
2023/07/30 09:54:11;;;;;;;0.00;0.00;;;;;;;17.57;nan;99933.22;6218496;23;20312;-75
2023/07/30 09:56:39;;;;;;;0.00;0.00;;;;;;;17.78;nan;99929.78;6243531;23;20035;-74
2023/07/30 09:59:06;;;;;;;0.00;0.00;;;;;;;17.84;nan;99945.06;6244370;23;20004;-74
2023/07/30 10:01:34;;;;;;;0.00;0.00;;;;;;;17.81;nan;99931.91;6244624;22;20004;-74
2023/07/30 10:04:09;;;;;;;0.00;0.00;;;;;;;17.74;nan;99928.81;6243687;23;20087;-73
2023/07/30 10:06:39;;;;;;;0.00;0.00;;;;;;;17.83;nan;99924.13;6243418;23;20411;-75
2023/07/30 10:09:07;;;;;;;0.00;0.00;;;;;;;18.01;nan;99929.66;6243320;23;20008;-73
2023/07/30 10:11:33;;;;;;;0.00;0.00;;;;;;;17.98;nan;99914.50;6218265;23;20376;-74
2023/07/30 10:13:59;;;;;;;0.00;0.00;;;;;;;17.84;nan;99920.19;6242816;23;20012;-72
2023/07/30 10:16:29;;;;;;;0.00;0.00;;;;;;;17.57;nan;99921.34;6218290;23;20015;-74
2023/07/30 10:19:01;;;;;;;0.00;0.00;;;;;;;17.37;nan;99931.09;6246141;22;19996;-74
2023/07/30 10:21:31;;;;;;;0.00;0.00;;;;;;;17.20;nan;99924.44;6275140;22;20014;-74
2023/07/30 10:24:02;;;;;;;0.00;0.00;;;;;;;17.27;nan;99935.81;6222198;22;20144;-73
2023/07/30 10:26:32;;;;;;;0.00;0.00;;;;;;;17.25;nan;99932.53;6247335;22;20061;-74
2023/07/30 10:29:14;;;;;;;0.00;0.00;;;;;;;17.46;nan;99926.38;6273031;22;20070;-74
2023/07/30 10:31:47;;;;;;;0.00;0.00;;;;;;;17.78;nan;99944.47;6247296;22;20004;-74
2023/07/30 10:34:13;;;;;;;0.00;0.00;;;;;;;18.21;nan;99928.13;6272633;22;20004;-73
2023/07/30 10:36:48;;;;;;;0.00;0.00;;;;;;;18.72;nan;99942.09;6194936;22;20007;-74
2023/07/30 10:39:20;;;;;;;0.00;0.00;;;;;;;19.05;nan;99922.09;6273810;22;20000;-73
2023/07/30 10:41:48;;;;;;;0.00;0.00;;;;;;;19.24;nan;99936.31;6246742;22;20362;-73
2023/07/30 10:44:19;;;;;;;0.00;0.00;;;;;;;19.31;nan;99927.47;6247318;22;20061;-72
2023/07/30 10:46:44;;;;;;;0.00;0.00;;;;;;;19.48;nan;99929.31;6221354;22;20007;-75
2023/07/30 10:49:11;;;;;;;0.00;0.00;;;;;;;19.35;nan;99926.47;6247338;22;20529;-74
2023/07/30 10:51:37;;;;;;;0.00;0.00;;;;;;;19.19;nan;99911.56;6196572;22;20091;-73
2023/07/30 10:54:07;;;;;;;0.00;0.00;;;;;;;19.35;nan;99920.91;6246619;22;20031;-72
2023/07/30 10:56:36;;;;;;;0.00;0.00;;;;;;;19.31;nan;99933.00;6273102;22;20000;-73
2023/07/30 10:59:05;;;;;;;0.00;0.00;;;;;;;19.45;nan;99924.41;6246851;22;20085;-72
2023/07/30 11:01:31;;;;;;;0.00;0.00;;;;;;;19.59;nan;99927.72;6247309;22;20082;-76
2023/07/30 11:03:56;;;;;;;0.00;0.00;;;;;;;19.73;nan;99912.75;6221737;22;20034;-71
2023/07/30 11:06:23;;;;;;;0.00;0.00;;;;;;;20.08;nan;99918.84;6246354;22;20000;-72
2023/07/30 11:08:49;;;;;;;0.00;0.00;;;;;;;20.48;nan;99925.75;6247395;22;20011;-74
2023/07/30 11:11:15;;;;;;;0.00;0.00;;;;;;;20.72;nan;99924.97;6248022;22;20339;-73
2023/07/30 11:13:43;;;;;;;0.00;0.00;;;;;;;20.84;nan;99932.50;6275034;22;20425;-76
2023/07/30 11:16:10;;;;;;;0.00;0.00;;;;;;;20.90;nan;99931.13;6273708;22;19999;-75
2023/07/30 11:18:36;;;;;;;0.00;0.00;;;;;;;20.93;nan;99924.84;6272980;22;20329;-76
2023/07/30 11:21:10;;;;;;;0.00;0.00;;;;;;;21.08;nan;99921.38;6245785;22;20016;-75
2023/07/30 11:23:37;;;;;;;0.00;0.00;;;;;;;21.21;nan;99938.03;6244528;22;20380;-75
2023/07/30 11:26:04;;;;;;;0.00;0.00;;;;;;;21.26;nan;99926.66;6245336;22;20267;-74
2023/07/30 11:28:35;;;;;;;0.00;0.00;;;;;;;21.38;nan;99917.50;6245049;22;20499;-75
2023/07/30 11:31:10;;;;;;;0.00;0.00;;;;;;;21.12;nan;99920.69;6271510;22;20333;-76
2023/07/30 11:33:38;;;;;;;0.00;0.00;;;;;;;21.22;nan;99920.19;6245554;22;20050;-76
2023/07/30 11:36:04;;;;;;;0.00;0.00;;;;;;;21.44;nan;99928.00;6244382;22;20016;-76
2023/07/30 11:38:32;;;;;;;0.00;0.00;;;;;;;21.32;nan;99918.88;6245415;22;20010;-75
2023/07/30 11:40:58;;;;;;;0.00;0.00;;;;;;;21.25;nan;99917.50;6222541;22;20048;-74
2023/07/30 11:43:24;;;;;;;0.00;0.00;;;;;;;21.20;nan;99914.16;6272976;22;20425;-72
2023/07/30 11:46:15;;;;;;;0.00;0.00;;;;;;;20.82;nan;99918.13;6222475;22;20087;-73
2023/07/30 11:48:46;;;;;;;0.00;0.00;;;;;;;20.40;nan;99914.38;6249335;22;20330;-72